Time;durP1;ratioP1;P1;durP2;ratioP2;P2;SDS_P1;SDS_P2;PMS_P1;PMS_P2;Temp;Humidity;BMP_temperature;BMP_pressure;BME280_temperature;BME280_humidity;BME280_pressure;Samples;Min_cycle;Max_cycle;Signal;HPM_P1;HPM_P2
2021/05/05 00:03:15;;;;;;;3.75;2.22;;;;;;;;;;10336055;28;20512;-59
2021/05/05 00:08:13;;;;;;;2.20;1.98;;;;;;;;;;10336583;28;20037;-59
2021/05/05 00:13:10;;;;;;;2.33;1.95;;;;;;;;;;10336043;28;20032;-59
2021/05/05 00:18:08;;;;;;;8.82;1.80;;;;;;;;;;10335669;28;20040;-59
2021/05/05 00:23:07;;;;;;;3.42;1.88;;;;;;;;;;10337335;28;20079;-59
2021/05/05 00:28:04;;;;;;;9.18;1.75;;;;;;;;;;10332004;28;20051;-59
2021/05/05 00:33:02;;;;;;;4.53;1.83;;;;;;;;;;10336789;28;20044;-59
2021/05/05 00:38:00;;;;;;;3.80;1.60;;;;;;;;;;10341295;28;20516;-58
2021/05/05 00:42:57;;;;;;;5.07;2.13;;;;;;;;;;10343835;28;20070;-58
2021/05/05 00:47:55;;;;;;;2.53;1.73;;;;;;;;;;10344226;28;20039;-58
2021/05/05 00:52:52;;;;;;;2.40;1.60;;;;;;;;;;10342657;28;20048;-59
2021/05/05 00:57:50;;;;;;;4.35;1.77;;;;;;;;;;10343826;28;20104;-57
2021/05/05 01:02:48;;;;;;;4.80;2.13;;;;;;;;;;10337990;28;20078;-58
2021/05/05 01:07:45;;;;;;;3.28;1.63;;;;;;;;;;10342839;28;20051;-59
2021/05/05 01:12:43;;;;;;;3.40;2.60;;;;;;;;;;10340770;28;20044;-59
2021/05/05 01:17:43;;;;;;;3.97;2.00;;;;;;;;;;10341757;28;20045;-58
2021/05/05 01:22:44;;;;;;;3.08;1.55;;;;;;;;;;10340605;28;20055;-58
2021/05/05 01:27:42;;;;;;;2.45;1.60;;;;;;;;;;10341861;28;20044;-58
2021/05/05 01:32:39;;;;;;;2.45;1.80;;;;;;;;;;10342338;28;20067;-59
2021/05/05 01:37:37;;;;;;;4.55;1.95;;;;;;;;;;10340769;28;20065;-59
2021/05/05 01:42:36;;;;;;;2.97;1.95;;;;;;;;;;10341252;28;20036;-58
2021/05/05 01:47:33;;;;;;;5.38;1.63;;;;;;;;;;10337357;28;20067;-59
2021/05/05 01:52:31;;;;;;;2.55;1.85;;;;;;;;;;10342958;28;20040;-59
2021/05/05 01:57:37;;;;;;;1.88;1.73;;;;;;;;;;10341451;28;20077;-58
2021/05/05 02:02:40;;;;;;;2.50;1.67;;;;;;;;;;10338648;28;20083;-58
2021/05/05 02:07:41;;;;;;;5.65;1.85;;;;;;;;;;10339677;28;20404;-58
2021/05/05 02:12:40;;;;;;;2.47;1.65;;;;;;;;;;10337964;28;20465;-59
2021/05/05 02:17:38;;;;;;;5.18;2.88;;;;;;;;;;10340170;28;20055;-59
2021/05/05 02:22:36;;;;;;;1.50;1.35;;;;;;;;;;10336793;28;20088;-58
2021/05/05 02:27:34;;;;;;;2.58;2.20;;;;;;;;;;10340836;28;20509;-59
2021/05/05 02:32:34;;;;;;;2.88;1.63;;;;;;;;;;10337673;28;20040;-59
2021/05/05 02:37:32;;;;;;;5.18;2.05;;;;;;;;;;10339894;28;20474;-58
2021/05/05 02:42:29;;;;;;;2.45;1.70;;;;;;;;;;10338732;28;20094;-59
2021/05/05 02:47:27;;;;;;;3.42;1.60;;;;;;;;;;10339127;28;20434;-58
2021/05/05 02:52:25;;;;;;;2.95;1.83;;;;;;;;;;10339434;28;20047;-59
2021/05/05 02:57:23;;;;;;;2.53;1.45;;;;;;;;;;10335758;28;20056;-59
2021/05/05 03:02:21;;;;;;;3.40;1.55;;;;;;;;;;10338563;28;20079;-58
2021/05/05 03:07:18;;;;;;;1.73;1.48;;;;;;;;;;10337471;28;20048;-58
2021/05/05 03:12:17;;;;;;;2.17;1.65;;;;;;;;;;10338280;28;20064;-58
2021/05/05 03:17:15;;;;;;;2.53;1.98;;;;;;;;;;10337419;28;20047;-59
2021/05/05 03:22:13;;;;;;;2.85;2.08;;;;;;;;;;10337302;28;20072;-59
2021/05/05 03:27:11;;;;;;;3.08;1.70;;;;;;;;;;10337882;28;20032;-59
2021/05/05 03:32:09;;;;;;;1.75;1.52;;;;;;;;;;10336867;28;20076;-59
2021/05/05 03:37:07;;;;;;;3.80;1.65;;;;;;;;;;10337958;28;20402;-59
2021/05/05 03:42:05;;;;;;;3.15;2.05;;;;;;;;;;10331469;28;20531;-59
2021/05/05 03:47:03;;;;;;;3.05;1.83;;;;;;;;;;10335211;28;20075;-59
2021/05/05 03:52:01;;;;;;;4.80;2.13;;;;;;;;;;10335991;28;20091;-60
2021/05/05 03:56:58;;;;;;;2.20;2.00;;;;;;;;;;10335983;28;20040;-59
2021/05/05 04:01:56;;;;;;;6.00;2.15;;;;;;;;;;10332032;28;20509;-59
2021/05/05 04:06:53;;;;;;;3.17;2.03;;;;;;;;;;10335930;28;20079;-59
2021/05/05 04:11:52;;;;;;;3.92;2.53;;;;;;;;;;10335701;28;20075;-59
2021/05/05 04:16:49;;;;;;;12.35;2.40;;;;;;;;;;10337564;28;20044;-60
2021/05/05 04:22:04;;;;;;;3.90;2.05;;;;;;;;;;10336638;28;20501;-59
2021/05/05 04:27:20;;;;;;;;;;;;;;;;;;10335562;28;20080;-59
2021/05/05 04:32:18;;;;;;;10.80;2.10;;;;;;;;;;10336186;28;19955;-58
2021/05/05 04:37:15;;;;;;;9.05;2.28;;;;;;;;;;10335272;28;20054;-58
2021/05/05 04:42:14;;;;;;;6.45;2.13;;;;;;;;;;10335669;28;20519;-58
2021/05/05 04:47:12;;;;;;;2.17;1.52;;;;;;;;;;10331991;28;20067;-59
2021/05/05 04:52:11;;;;;;;4.03;1.98;;;;;;;;;;10329984;28;20066;-59
2021/05/05 04:57:08;;;;;;;2.70;1.70;;;;;;;;;;10334383;28;20092;-59
2021/05/05 05:02:07;;;;;;;4.68;1.65;;;;;;;;;;10334661;28;20036;-58
2021/05/05 05:07:05;;;;;;;3.60;1.60;;;;;;;;;;10335168;28;20080;-59
2021/05/05 05:12:04;;;;;;;2.03;1.75;;;;;;;;;;10335376;28;20048;-58
2021/05/05 05:17:01;;;;;;;5.45;3.15;;;;;;;;;;10334447;28;20068;-58
2021/05/05 05:22:00;;;;;;;2.53;1.73;;;;;;;;;;10336792;28;20079;-58
2021/05/05 05:26:57;;;;;;;2.95;1.58;;;;;;;;;;10341294;28;20105;-59
2021/05/05 05:31:55;;;;;;;4.80;1.85;;;;;;;;;;10338877;28;20044;-59
2021/05/05 05:36:53;;;;;;;10.32;1.77;;;;;;;;;;10342283;28;20490;-59
2021/05/05 05:41:50;;;;;;;5.80;2.70;;;;;;;;;;10341122;28;20068;-59
2021/05/05 05:46:48;;;;;;;2.50;1.90;;;;;;;;;;10340998;28;20520;-59
2021/05/05 05:51:46;;;;;;;3.05;1.60;;;;;;;;;;10341787;28;20044;-58
2021/05/05 05:56:43;;;;;;;3.42;1.83;;;;;;;;;;10340064;28;20083;-59
2021/05/05 06:01:41;;;;;;;4.75;2.20;;;;;;;;;;10341558;28;20051;-59
2021/05/05 06:06:38;;;;;;;3.40;1.80;;;;;;;;;;10339407;28;20086;-58
2021/05/05 06:11:37;;;;;;;7.15;3.55;;;;;;;;;;10341427;28;20083;-59
2021/05/05 06:16:34;;;;;;;2.40;2.05;;;;;;;;;;10339587;28;20040;-58
2021/05/05 06:21:31;;;;;;;4.90;2.53;;;;;;;;;;10339227;28;20060;-58
2021/05/05 06:26:29;;;;;;;13.23;5.22;;;;;;;;;;10339853;28;20040;-58
2021/05/05 06:31:30;;;;;;;8.32;3.70;;;;;;;;;;10338782;28;20040;-58
2021/05/05 06:36:27;;;;;;;8.00;3.05;;;;;;;;;;10339842;28;20054;-58
2021/05/05 06:41:25;;;;;;;3.22;2.10;;;;;;;;;;10337820;28;20425;-58
2021/05/05 06:46:22;;;;;;;5.88;3.50;;;;;;;;;;10339132;28;20076;-58
2021/05/05 06:51:20;;;;;;;6.13;3.97;;;;;;;;;;10337775;28;20036;-58
2021/05/05 06:56:18;;;;;;;13.63;3.65;;;;;;;;;;10338119;28;20063;-58
2021/05/05 07:01:16;;;;;;;10.18;3.10;;;;;;;;;;10338610;28;20489;-60
2021/05/05 07:06:15;;;;;;;11.88;2.67;;;;;;;;;;10336946;28;20461;-58
2021/05/05 07:11:18;;;;;;;9.88;4.60;;;;;;;;;;10337903;28;20039;-58
2021/05/05 07:16:15;;;;;;;18.15;6.80;;;;;;;;;;10336667;28;20502;-58
2021/05/05 07:21:12;;;;;;;12.25;3.67;;;;;;;;;;10338292;28;20075;-58
2021/05/05 07:26:10;;;;;;;6.03;2.67;;;;;;;;;;10333996;28;20070;-59
2021/05/05 07:31:08;;;;;;;5.50;2.42;;;;;;;;;;10337868;28;20033;-59
2021/05/05 07:36:10;;;;;;;38.92;4.85;;;;;;;;;;10336594;28;20036;-59
2021/05/05 07:46:31;;;;;;;7.63;3.80;;;;;;;;;;10316078;28;20464;-58
2021/05/05 07:51:29;;;;;;;9.23;3.33;;;;;;;;;;10335685;28;20048;-59
2021/05/05 07:56:25;;;;;;;10.77;6.47;;;;;;;;;;10336473;28;20064;-59
2021/05/05 08:01:22;;;;;;;5.43;3.05;;;;;;;;;;10337045;28;20076;-59
2021/05/05 08:06:21;;;;;;;4.97;2.78;;;;;;;;;;10335199;28;20068;-59
2021/05/05 08:11:18;;;;;;;6.45;3.08;;;;;;;;;;10337061;28;20489;-59
2021/05/05 08:16:21;;;;;;;6.40;3.78;;;;;;;;;;10333397;28;20071;-58
2021/05/05 08:21:19;;;;;;;8.77;3.67;;;;;;;;;;10337242;28;20044;-58
2021/05/05 08:26:17;;;;;;;14.63;4.30;;;;;;;;;;10332057;28;20068;-58
2021/05/05 08:31:15;;;;;;;9.15;5.47;;;;;;;;;;10336368;28;20044;-58
2021/05/05 08:36:12;;;;;;;5.55;3.92;;;;;;;;;;10334823;28;20083;-58
2021/05/05 08:41:10;;;;;;;10.52;3.97;;;;;;;;;;10335734;28;20379;-59
2021/05/05 08:46:08;;;;;;;11.05;3.92;;;;;;;;;;10336082;28;20072;-61
2021/05/05 08:51:08;;;;;;;9.00;3.53;;;;;;;;;;10334376;28;20036;-59
2021/05/05 08:56:05;;;;;;;6.25;3.20;;;;;;;;;;10334799;28;20394;-58
2021/05/05 09:01:03;;;;;;;7.45;3.55;;;;;;;;;;10340898;28;20079;-57
2021/05/05 09:06:04;;;;;;;4.72;3.13;;;;;;;;;;10339368;28;20075;-58
2021/05/05 09:11:02;;;;;;;7.72;3.80;;;;;;;;;;10343311;28;20409;-59
2021/05/05 09:16:06;;;;;;;5.50;3.55;;;;;;;;;;10341641;28;20043;-58
2021/05/05 09:21:10;;;;;;;6.20;3.80;;;;;;;;;;10338370;28;20044;-58
2021/05/05 09:26:08;;;;;;;7.47;4.35;;;;;;;;;;10339141;28;20083;-60
2021/05/05 09:31:09;;;;;;;8.77;5.13;;;;;;;;;;10337980;28;20040;-59
2021/05/05 09:36:08;;;;;;;15.95;8.00;;;;;;;;;;10337978;28;20063;-59
2021/05/05 09:41:06;;;;;;;12.20;8.02;;;;;;;;;;10337759;28;20464;-58
2021/05/05 09:46:04;;;;;;;7.65;6.05;;;;;;;;;;10342240;28;20102;-59
2021/05/05 09:51:02;;;;;;;9.90;4.28;;;;;;;;;;10340567;28;20098;-59
2021/05/05 09:56:08;;;;;;;12.07;3.97;;;;;;;;;;10340565;28;20506;-58
2021/05/05 10:01:10;;;;;;;9.30;3.80;;;;;;;;;;10340024;28;20078;-59
2021/05/05 10:06:17;;;;;;;7.88;4.43;;;;;;;;;;10341645;28;20064;-58
2021/05/05 10:11:16;;;;;;;10.32;3.95;;;;;;;;;;10337720;28;20045;-59
2021/05/05 10:16:13;;;;;;;10.07;4.82;;;;;;;;;;10340889;28;20044;-59
2021/05/05 10:21:13;;;;;;;7.45;4.20;;;;;;;;;;10335667;28;20069;-58
2021/05/05 10:26:10;;;;;;;10.00;4.68;;;;;;;;;;10340344;28;20072;-59
2021/05/05 10:31:15;;;;;;;9.52;6.63;;;;;;;;;;10338638;28;20363;-59
2021/05/05 10:36:29;;;;;;;9.32;4.20;;;;;;;;;;10335513;28;20040;-59
2021/05/05 10:41:27;;;;;;;12.02;6.85;;;;;;;;;;10339034;28;20520;-59
2021/05/05 10:46:26;;;;;;;7.78;6.55;;;;;;;;;;10339297;28;20476;-59
2021/05/05 10:51:23;;;;;;;13.75;6.70;;;;;;;;;;10338264;28;20037;-59
2021/05/05 10:56:22;;;;;;;11.05;5.97;;;;;;;;;;10339130;28;20075;-58
2021/05/05 11:01:35;;;;;;;7.20;4.65;;;;;;;;;;10337538;28;20087;-58
2021/05/05 11:06:50;;;;;;;11.02;6.38;;;;;;;;;;10338230;28;20068;-58
2021/05/05 11:11:49;;;;;;;21.80;12.48;;;;;;;;;;10335586;28;20433;-58
2021/05/05 11:17:01;;;;;;;14.23;7.78;;;;;;;;;;10338145;28;20050;-59
2021/05/05 11:21:58;;;;;;;12.55;6.63;;;;;;;;;;10333163;28;20048;-59
2021/05/05 11:26:57;;;;;;;6.78;6.05;;;;;;;;;;10337561;28;20080;-59
2021/05/05 11:32:05;;;;;;;9.95;6.75;;;;;;;;;;10336780;28;20040;-59
2021/05/05 11:37:04;;;;;;;14.68;7.47;;;;;;;;;;10333750;28;20501;-59
2021/05/05 11:42:03;;;;;;;13.50;7.05;;;;;;;;;;10333847;28;20098;-59
2021/05/05 11:47:00;;;;;;;10.15;7.97;;;;;;;;;;10337510;28;20100;-59
2021/05/05 11:51:58;;;;;;;16.33;9.98;;;;;;;;;;10335695;28;20040;-59
2021/05/05 11:57:21;;;;;;;11.18;8.15;;;;;;;;;;10335863;28;20029;-59
2021/05/05 12:02:18;;;;;;;8.95;6.95;;;;;;;;;;10335850;28;20055;-59
2021/05/05 12:07:16;;;;;;;8.48;7.28;;;;;;;;;;10336296;28;20080;-59
2021/05/05 12:12:19;;;;;;;11.80;8.95;;;;;;;;;;10336685;28;20531;-59
2021/05/05 12:17:24;;;;;;;9.73;6.90;;;;;;;;;;10336407;28;20064;-58
2021/05/05 12:22:21;;;;;;;20.83;6.35;;;;;;;;;;10335073;28;20248;-58
2021/05/05 12:27:19;;;;;;;8.18;7.25;;;;;;;;;;10336187;28;20465;-59
2021/05/05 12:32:17;;;;;;;9.20;5.28;;;;;;;;;;10339382;28;20075;-59
2021/05/05 12:37:14;;;;;;;5.22;3.92;;;;;;;;;;10342839;28;20505;-59
2021/05/05 12:42:13;;;;;;;6.47;5.70;;;;;;;;;;10344806;28;20076;-59
2021/05/05 12:47:14;;;;;;;12.05;9.48;;;;;;;;;;10342697;28;20075;-59
2021/05/05 12:52:25;;;;;;;14.93;11.48;;;;;;;;;;10341227;28;20477;-59
2021/05/05 12:57:23;;;;;;;10.25;5.35;;;;;;;;;;10342062;28;20091;-59
2021/05/05 13:02:22;;;;;;;5.20;3.90;;;;;;;;;;10343453;28;20055;-59
2021/05/05 13:07:29;;;;;;;10.20;4.32;;;;;;;;;;10342596;28;20076;-59
2021/05/05 13:12:31;;;;;;;7.75;5.78;;;;;;;;;;10342364;28;20062;-59
2021/05/05 13:17:47;;;;;;;7.15;4.72;;;;;;;;;;10343756;28;20040;-59
2021/05/05 13:33:31;;;;;;;7.45;4.10;;;;;;;;;;10342459;28;20036;-58
2021/05/05 13:38:29;;;;;;;7.30;3.13;;;;;;;;;;10341292;28;20076;-58
2021/05/05 13:43:45;;;;;;;9.82;3.85;;;;;;;;;;10338633;28;20067;-58
2021/05/05 13:48:45;;;;;;;5.93;2.70;;;;;;;;;;10342636;28;20109;-58
2021/05/05 13:53:46;;;;;;;3.40;2.88;;;;;;;;;;10340648;28;20075;-58
2021/05/05 13:58:44;;;;;;;8.38;5.25;;;;;;;;;;10341591;28;20055;-59
2021/05/05 14:03:41;;;;;;;4.47;2.83;;;;;;;;;;10340114;28;20047;-58
2021/05/05 14:08:39;;;;;;;23.20;4.63;;;;;;;;;;10337444;28;20067;-60
2021/05/05 14:13:37;;;;;;;9.77;6.03;;;;;;;;;;10341367;28;20072;-59
2021/05/05 14:18:34;;;;;;;10.32;5.40;;;;;;;;;;10339982;28;20040;-59
2021/05/05 14:23:32;;;;;;;6.88;4.95;;;;;;;;;;10340170;28;20072;-59
2021/05/05 14:28:29;;;;;;;7.57;6.65;;;;;;;;;;10340413;28;20449;-59
2021/05/05 14:33:28;;;;;;;6.85;6.00;;;;;;;;;;10338930;28;20075;-59
2021/05/05 14:38:27;;;;;;;13.07;9.63;;;;;;;;;;10321670;28;20075;-59
2021/05/05 14:43:28;;;;;;;8.57;4.95;;;;;;;;;;10325194;28;20048;-58
2021/05/05 14:48:27;;;;;;;6.95;3.25;;;;;;;;;;10328808;28;20068;-55
2021/05/05 14:53:26;;;;;;;6.53;4.80;;;;;;;;;;10333958;28;20028;-59
2021/05/05 14:58:28;;;;;;;10.57;5.50;;;;;;;;;;10318690;28;20091;-56
2021/05/05 15:03:29;;;;;;;2.92;2.35;;;;;;;;;;10321980;28;20406;-59
2021/05/05 15:08:33;;;;;;;7.18;4.78;;;;;;;;;;10326591;28;20095;-59
2021/05/05 15:13:34;;;;;;;9.10;7.65;;;;;;;;;;10333834;28;20417;-59
2021/05/05 15:39:56;;;;;;;13.00;6.75;;;;;;;;;;10335548;28;20045;-57
2021/05/05 15:44:56;;;;;;;10.32;6.63;;;;;;;;;;10334153;28;20110;-58
2021/05/05 15:49:56;;;;;;;11.30;8.43;;;;;;;;;;10334217;28;20051;-59
2021/05/05 15:54:54;;;;;;;10.50;5.28;;;;;;;;;;10321524;28;20509;-59
2021/05/05 15:59:59;;;;;;;7.95;6.22;;;;;;;;;;10333120;28;20087;-60
2021/05/05 16:09:14;;;;;;;12.50;7.70;;;;;;;;;;10332414;28;20075;-59
2021/05/05 16:15:44;;;;;;;10.80;5.90;;;;;;;;;;10322856;28;20060;-60
2021/05/05 16:20:50;;;;;;;7.57;6.15;;;;;;;;;;10325379;28;20040;-58
2021/05/05 16:25:54;;;;;;;7.45;5.65;;;;;;;;;;10320446;28;20501;-59
2021/05/05 16:52:02;;;;;;;8.80;5.22;;;;;;;;;;10333711;28;20044;-59
2021/05/05 16:57:04;;;;;;;7.43;5.50;;;;;;;;;;10331406;28;20075;-59
2021/05/05 17:07:41;;;;;;;8.95;5.57;;;;;;;;;;10335176;28;20537;-58
2021/05/05 17:12:39;;;;;;;7.53;6.70;;;;;;;;;;10335779;28;20060;-58
2021/05/05 17:17:43;;;;;;;12.23;7.82;;;;;;;;;;10334786;28;20036;-60
2021/05/05 17:22:46;;;;;;;16.60;8.15;;;;;;;;;;10343170;28;20067;-60
2021/05/05 17:27:48;;;;;;;14.60;11.18;;;;;;;;;;10339222;28;20075;-60
2021/05/05 17:38:28;;;;;;;11.45;6.93;;;;;;;;;;10342458;28;20048;-60
2021/05/05 17:43:33;;;;;;;17.60;7.65;;;;;;;;;;10343077;28;20040;-59
2021/05/05 17:48:49;;;;;;;8.35;6.82;;;;;;;;;;10339066;28;20145;-59
2021/05/05 18:10:07;;;;;;;11.40;7.90;;;;;;;;;;10341602;28;20068;-60
2021/05/05 18:15:10;;;;;;;8.50;5.50;;;;;;;;;;10339453;28;20045;-60
2021/05/05 18:20:10;;;;;;;10.85;5.50;;;;;;;;;;10340164;28;20063;-59
2021/05/05 18:25:25;;;;;;;5.75;4.63;;;;;;;;;;10341097;28;20045;-60
2021/05/05 18:30:23;;;;;;;8.45;4.95;;;;;;;;;;10339225;28;20087;-59
2021/05/05 18:35:20;;;;;;;7.78;5.22;;;;;;;;;;10339924;28;20036;-60
2021/05/05 18:40:21;;;;;;;8.10;5.70;;;;;;;;;;10339197;28;20071;-60
2021/05/05 19:07:06;;;;;;;6.85;4.63;;;;;;;;;;10335644;28;20079;-59
2021/05/05 20:15:47;;;;;;;4.88;3.70;;;;;;;;;;10336077;28;20048;-60
2021/05/05 20:20:52;;;;;;;5.38;3.40;;;;;;;;;;10332828;28;20087;-59
2021/05/05 20:52:49;;;;;;;3.97;2.65;;;;;;;;;;10335780;28;20166;-59
2021/05/05 21:08:47;;;;;;;8.07;2.80;;;;;;;;;;10340000;28;20505;-58
2021/05/05 23:10:26;;;;;;;;;;;;;;;;;;10340261;28;20095;-60
2021/05/05 23:15:39;;;;;;;7.65;2.50;;;;;;;;;;10337807;28;19955;-59
2021/05/05 23:26:10;;;;;;;8.93;2.60;;;;;;;;;;10334256;28;20064;-59
2021/05/05 23:31:27;;;;;;;2.92;2.50;;;;;;;;;;10338227;28;20586;-59
2021/05/05 23:57:50;;;;;;;3.50;2.58;;;;;;;;;;10333398;28;20059;-59
